createdAt,value
2022-10-02T00:00:24.392Z,100.00
2022-10-02T00:02:43.371Z,100.00
2022-10-02T00:03:58.825Z,100.00
2022-10-02T00:06:05.762Z,100.00
2022-10-02T00:07:14.844Z,100.00
2022-10-02T00:08:36.768Z,100.00
2022-10-02T00:09:56.515Z,100.00
2022-10-02T00:11:28.914Z,100.00
2022-10-02T00:12:37.822Z,100.00
2022-10-02T00:14:04.311Z,100.00
2022-10-02T00:15:23.808Z,100.00
2022-10-02T00:16:44.276Z,100.00
2022-10-02T00:17:57.422Z,100.00
2022-10-02T00:19:04.770Z,100.00
2022-10-02T00:20:20.094Z,100.00
2022-10-02T00:23:55.300Z,100.00
2022-10-02T02:31:21.319Z,100.00
2022-10-02T02:32:32.322Z,100.00
2022-10-02T02:33:46.672Z,100.00
2022-10-02T02:35:02.210Z,99.76
2022-10-02T02:36:14.579Z,100.00
2022-10-02T02:37:26.561Z,100.00
2022-10-02T02:38:45.191Z,100.00
2022-10-02T02:40:05.446Z,100.00
2022-10-02T02:41:28.732Z,100.00
2022-10-02T02:42:43.217Z,100.00
2022-10-02T02:44:09.696Z,100.00
2022-10-02T02:45:25.391Z,100.00
2022-10-02T02:47:04.703Z,100.00
2022-10-02T02:48:26.527Z,100.00
2022-10-02T02:49:39.881Z,100.00
2022-10-02T02:50:59.797Z,100.00
2022-10-02T02:52:10.923Z,100.00
2022-10-02T02:53:40.169Z,100.00
2022-10-02T02:54:58.321Z,100.00
2022-10-02T02:56:10.853Z,100.00
2022-10-02T02:57:21.062Z,100.00
2022-10-02T02:58:42.402Z,100.00
2022-10-02T02:59:51.589Z,100.00
2022-10-02T03:00:56.841Z,100.00
2022-10-02T03:02:01.902Z,100.00
2022-10-02T03:03:06.546Z,100.00
2022-10-02T03:04:15.959Z,100.00
2022-10-02T03:05:21.734Z,100.00
2022-10-02T03:06:33.677Z,100.00
2022-10-02T03:07:39.015Z,100.00
2022-10-02T03:08:45.695Z,100.00
2022-10-02T03:10:21.957Z,100.00
2022-10-02T03:11:50.588Z,100.00
2022-10-02T03:13:22.245Z,100.00
2022-10-02T03:15:04.335Z,100.00
2022-10-02T03:16:36.525Z,100.00
2022-10-02T03:18:02.971Z,100.00
2022-10-02T03:19:40.889Z,100.00
2022-10-02T03:21:01.839Z,100.00
2022-10-02T03:22:30.036Z,100.00
2022-10-02T03:24:27.714Z,100.00
2022-10-02T03:25:53.015Z,100.00
2022-10-02T03:27:09.581Z,100.00
2022-10-02T03:28:54.557Z,100.00
2022-10-02T03:30:13.927Z,100.00
2022-10-02T03:31:21.560Z,100.00
2022-10-02T03:32:28.842Z,100.00
2022-10-02T03:33:37.756Z,100.00
2022-10-02T03:34:42.100Z,100.00
2022-10-02T03:35:46.934Z,100.00
2022-10-02T03:36:51.694Z,100.00
2022-10-02T03:38:05.993Z,100.00
2022-10-02T03:39:26.627Z,100.00
2022-10-02T03:40:30.839Z,100.00
2022-10-02T03:41:35.008Z,100.00
2022-10-02T03:42:40.661Z,100.00
2022-10-02T03:43:46.136Z,100.00
2022-10-02T03:44:50.551Z,100.00
2022-10-02T03:45:54.961Z,100.00
2022-10-02T03:47:01.080Z,100.00
2022-10-02T03:48:06.583Z,100.00
2022-10-02T03:49:11.208Z,100.00
2022-10-02T03:50:17.944Z,100.00
2022-10-02T03:51:25.172Z,100.00
2022-10-02T03:52:35.875Z,100.00
2022-10-02T03:53:42.596Z,100.00
2022-10-02T03:54:49.333Z,100.00
2022-10-02T03:56:09.723Z,100.00
2022-10-02T03:57:22.913Z,100.00
2022-10-02T03:58:27.570Z,100.00
2022-10-02T04:00:04.530Z,100.00
2022-10-02T04:01:19.410Z,100.00
2022-10-02T04:02:49.178Z,100.00
2022-10-02T04:04:30.050Z,100.00
2022-10-02T04:06:04.922Z,100.00
2022-10-02T04:07:38.461Z,100.00
2022-10-02T04:08:59.409Z,100.00
2022-10-02T04:10:14.284Z,100.00
2022-10-02T04:11:40.233Z,100.00
2022-10-02T04:13:12.221Z,100.00
2022-10-02T04:14:37.501Z,100.00
2022-10-02T04:15:47.886Z,100.00
2022-10-02T04:17:04.564Z,100.00
2022-10-02T04:18:23.206Z,100.00
2022-10-02T04:19:49.883Z,100.00
2022-10-02T04:21:05.590Z,100.00
2022-10-02T04:22:46.552Z,100.00
2022-10-02T04:24:12.991Z,100.00
2022-10-02T04:25:25.382Z,100.00
2022-10-02T04:26:40.072Z,100.00
2022-10-02T04:27:58.347Z,100.00
2022-10-02T04:29:28.917Z,100.00
2022-10-02T04:30:32.859Z,100.00
2022-10-02T04:31:37.164Z,100.00
2022-10-02T04:32:41.164Z,100.00
2022-10-02T04:33:45.526Z,100.00
2022-10-02T04:34:49.574Z,100.00
2022-10-02T04:36:08.340Z,100.00
2022-10-02T04:37:27.699Z,100.00
2022-10-02T04:38:55.343Z,100.00
2022-10-02T04:40:08.453Z,100.00
2022-10-02T04:41:52.327Z,100.00
2022-10-02T04:43:42.605Z,100.00
2022-10-02T04:45:16.623Z,100.00
2022-10-02T04:47:00.889Z,100.00
2022-10-02T04:48:32.722Z,100.00
2022-10-02T04:50:01.589Z,100.00
2022-10-02T04:51:27.805Z,100.00
2022-10-02T04:52:46.943Z,100.00
2022-10-02T04:54:05.879Z,100.00
2022-10-02T04:55:35.934Z,100.00
2022-10-02T04:57:01.361Z,100.00
2022-10-02T04:58:23.639Z,100.00
2022-10-02T05:00:07.277Z,100.00
2022-10-02T05:01:42.820Z,100.00
2022-10-02T05:03:24.110Z,100.00
2022-10-02T05:04:31.044Z,100.00
2022-10-02T05:06:31.663Z,100.00
2022-10-02T05:07:48.284Z,100.00
2022-10-02T05:09:28.434Z,100.00
2022-10-02T05:10:57.542Z,100.00
2022-10-02T05:12:11.465Z,100.00
2022-10-02T05:13:55.251Z,100.00
2022-10-02T05:15:35.516Z,100.00
2022-10-02T05:17:13.572Z,100.00
2022-10-02T05:18:38.143Z,100.00
2022-10-02T05:20:32.924Z,100.00
2022-10-02T05:21:57.411Z,100.00
2022-10-02T05:23:22.458Z,100.00
2022-10-02T05:24:32.004Z,100.00
2022-10-02T05:26:01.329Z,100.00
2022-10-02T05:27:30.349Z,100.00
2022-10-02T05:28:56.131Z,100.00
2022-10-02T05:30:20.367Z,100.00
2022-10-02T05:32:15.837Z,100.00
2022-10-02T05:33:48.512Z,100.00
2022-10-02T05:35:29.804Z,100.00
2022-10-02T05:37:11.772Z,100.00
2022-10-02T05:38:43.430Z,100.00
2022-10-02T05:40:09.373Z,99.99
2022-10-02T05:41:23.462Z,99.44
2022-10-02T05:42:44.427Z,99.77
2022-10-02T05:44:13.152Z,99.17
2022-10-02T05:45:37.296Z,99.55
2022-10-02T05:47:10.200Z,99.14
2022-10-02T05:48:17.373Z,99.32
2022-10-02T05:49:29.808Z,99.20
2022-10-02T05:50:38.439Z,99.13
2022-10-02T05:51:59.836Z,99.01
2022-10-02T05:53:41.471Z,98.43
2022-10-02T05:54:59.148Z,98.30
2022-10-02T05:56:24.388Z,98.20
2022-10-02T05:57:42.120Z,98.19
2022-10-02T05:58:59.627Z,98.31
2022-10-02T06:00:22.917Z,97.86
2022-10-02T06:01:32.699Z,98.14
2022-10-02T06:03:00.798Z,98.22
2022-10-02T06:04:41.827Z,97.96
2022-10-02T06:06:14.614Z,98.49
2022-10-02T06:07:22.461Z,98.46
2022-10-02T06:08:53.837Z,98.49
2022-10-02T06:10:29.801Z,97.78
2022-10-02T06:11:46.992Z,97.70
2022-10-02T06:13:15.306Z,97.37
2022-10-02T06:14:37.585Z,97.65
2022-10-02T06:16:01.045Z,97.65
2022-10-02T06:17:15.376Z,97.57
2022-10-02T06:18:27.870Z,97.45
2022-10-02T06:20:04.199Z,97.37
2022-10-02T06:21:26.424Z,97.58
2022-10-02T06:22:41.878Z,97.77
2022-10-02T06:23:56.818Z,97.68
2022-10-02T06:25:17.884Z,97.80
2022-10-02T06:27:05.033Z,97.44
2022-10-02T06:28:46.442Z,97.38
2022-10-02T06:30:27.298Z,97.87
2022-10-02T06:31:54.314Z,98.11
2022-10-02T06:33:17.083Z,98.45
2022-10-02T06:34:21.365Z,97.90
2022-10-02T06:35:39.815Z,98.21
2022-10-02T06:37:03.283Z,98.36
2022-10-02T06:38:19.746Z,98.35
2022-10-02T06:40:14.233Z,97.80
2022-10-02T06:41:47.693Z,97.68
2022-10-02T06:43:09.128Z,97.33
2022-10-02T06:44:32.140Z,96.88
2022-10-02T06:46:08.454Z,96.49
2022-10-02T06:48:03.131Z,95.65
2022-10-02T06:49:31.220Z,96.04
2022-10-02T06:51:31.754Z,95.26
2022-10-02T06:53:27.837Z,91.96
2022-10-02T06:54:54.478Z,90.77
2022-10-02T06:56:35.144Z,89.11
2022-10-02T06:58:02.456Z,88.43
2022-10-02T07:00:00.960Z,87.26
2022-10-02T07:01:41.479Z,86.23
2022-10-02T07:03:29.744Z,85.00
2022-10-02T07:05:06.506Z,84.18
2022-10-02T07:06:48.016Z,83.33
2022-10-02T07:08:16.986Z,83.20
2022-10-02T07:09:39.492Z,83.08
2022-10-02T07:11:20.308Z,83.28
2022-10-02T07:12:38.628Z,83.22
2022-10-02T07:14:16.964Z,83.89
2022-10-02T07:16:01.226Z,83.90
2022-10-02T07:17:22.196Z,84.62
2022-10-02T07:19:08.394Z,84.85
2022-10-02T07:21:08.910Z,84.54
2022-10-02T07:22:45.587Z,84.98
2022-10-02T07:24:43.137Z,84.51
2022-10-02T07:26:03.525Z,84.89
2022-10-02T07:27:50.853Z,84.62
2022-10-02T07:29:33.318Z,84.92
2022-10-02T07:30:59.836Z,85.44
2022-10-02T07:32:34.966Z,85.54
2022-10-02T07:34:32.230Z,85.15
2022-10-02T07:36:00.867Z,85.38
2022-10-02T07:37:04.928Z,85.25
2022-10-02T07:38:18.590Z,85.35
2022-10-02T07:39:45.781Z,85.36
2022-10-02T07:41:00.277Z,85.45
2022-10-02T07:42:18.826Z,85.56
2022-10-02T07:43:49.253Z,85.13
2022-10-02T07:45:26.769Z,84.62
2022-10-02T07:47:16.723Z,84.09
2022-10-02T07:49:17.101Z,83.04
2022-10-02T07:50:47.869Z,81.98
2022-10-02T07:53:17.292Z,80.32
2022-10-02T07:55:11.064Z,75.18
2022-10-02T07:56:52.451Z,71.51
2022-10-02T07:58:41.121Z,65.50
2022-10-02T08:00:04.679Z,63.13
2022-10-02T08:01:29.251Z,61.16
2022-10-02T08:04:59.998Z,53.38
2022-10-02T08:06:11.993Z,51.29
2022-10-02T08:07:34.929Z,49.91
2022-10-02T08:09:36.638Z,49.20
2022-10-02T08:11:37.188Z,49.08
2022-10-02T08:12:54.609Z,49.04
2022-10-02T08:14:46.890Z,49.15
2022-10-02T08:15:58.314Z,48.16
2022-10-02T08:17:41.229Z,49.76
2022-10-02T08:19:02.642Z,50.08
2022-10-02T08:20:37.054Z,51.94
2022-10-02T08:22:12.430Z,53.33
2022-10-02T08:23:30.056Z,54.36
2022-10-02T08:24:47.259Z,55.09
2022-10-02T08:26:06.033Z,55.89
2022-10-02T08:27:18.578Z,56.68
2022-10-02T08:28:37.219Z,56.99
2022-10-02T08:29:52.921Z,57.57
2022-10-02T08:30:59.242Z,57.34
2022-10-02T08:32:05.804Z,57.79
2022-10-02T08:33:24.919Z,58.29
2022-10-02T08:34:33.862Z,59.28
2022-10-02T08:36:17.328Z,59.76
2022-10-02T08:37:58.445Z,60.52
2022-10-02T08:39:30.739Z,61.65
2022-10-02T08:41:24.489Z,63.33
2022-10-02T08:43:17.183Z,64.84
2022-10-02T08:45:15.442Z,65.79
2022-10-02T08:46:45.493Z,66.62
2022-10-02T08:48:01.486Z,66.86
2022-10-02T08:49:40.210Z,67.32
2022-10-02T08:51:22.217Z,67.67
2022-10-02T08:53:28.371Z,68.78
2022-10-02T08:55:02.962Z,69.04
2022-10-02T08:56:48.325Z,69.40
2022-10-02T08:58:28.041Z,70.33
2022-10-02T09:00:23.444Z,70.06
2022-10-02T09:01:59.561Z,69.54
2022-10-02T09:03:20.104Z,68.00
2022-10-02T09:04:47.014Z,66.92
2022-10-02T09:06:18.961Z,64.56
2022-10-02T09:08:14.924Z,62.75
2022-10-02T09:09:47.155Z,62.32
2022-10-02T09:11:10.643Z,62.80
2022-10-02T09:12:45.060Z,63.64
2022-10-02T09:14:25.067Z,62.93
2022-10-02T09:16:07.962Z,62.95
2022-10-02T09:17:36.455Z,62.36
2022-10-02T09:19:24.020Z,62.49
2022-10-02T09:21:19.311Z,63.45
2022-10-02T09:23:22.505Z,64.70
2022-10-02T09:25:14.341Z,64.76
2022-10-02T09:26:49.524Z,65.36
2022-10-02T09:28:12.567Z,66.01
2022-10-02T09:29:51.083Z,66.23
2022-10-02T09:32:10.015Z,66.59
2022-10-02T09:34:06.066Z,66.55
2022-10-02T09:35:54.642Z,66.33
2022-10-02T09:37:32.682Z,66.25
2022-10-02T09:39:05.057Z,66.36
2022-10-02T09:40:56.368Z,65.84
2022-10-02T09:42:42.487Z,66.00
2022-10-02T09:44:32.267Z,66.27
2022-10-02T09:46:24.576Z,66.88
2022-10-02T09:48:09.349Z,66.97
2022-10-02T09:50:16.133Z,67.40
2022-10-02T09:52:03.300Z,67.65
2022-10-02T09:53:36.280Z,68.00
2022-10-02T09:55:02.397Z,68.12
2022-10-02T09:56:30.026Z,67.69
2022-10-02T09:58:05.803Z,67.47
2022-10-02T09:59:38.220Z,67.59
2022-10-02T10:01:09.096Z,67.85
2022-10-02T10:02:53.745Z,68.39
2022-10-02T10:04:09.330Z,67.49
2022-10-02T10:06:00.908Z,67.40
2022-10-02T10:07:54.601Z,67.39
2022-10-02T10:09:31.222Z,66.79
2022-10-02T10:11:48.588Z,67.38
2022-10-02T10:13:42.229Z,66.90
2022-10-02T10:15:11.331Z,66.53
2022-10-02T10:17:13.091Z,66.55
2022-10-02T10:19:04.299Z,64.35
2022-10-02T10:20:42.104Z,63.87
2022-10-02T10:22:24.801Z,64.51
2022-10-02T10:23:47.518Z,64.68
2022-10-02T10:25:36.051Z,64.56
2022-10-02T10:27:08.084Z,64.30
2022-10-02T10:29:00.635Z,64.39
2022-10-02T10:30:33.554Z,64.98
2022-10-02T10:32:27.399Z,65.31
2022-10-02T10:34:31.768Z,65.27
2022-10-02T10:36:44.518Z,64.87
2022-10-02T10:38:54.497Z,63.90
2022-10-02T10:40:21.866Z,64.15
2022-10-02T10:42:25.619Z,64.13
2022-10-02T10:44:11.822Z,63.93
2022-10-02T10:46:00.882Z,63.85
2022-10-02T10:47:34.899Z,63.49
2022-10-02T10:49:18.416Z,63.00
2022-10-02T10:50:57.874Z,63.17
2022-10-02T10:52:16.684Z,62.65
2022-10-02T10:54:25.537Z,62.63
2022-10-02T10:56:12.650Z,62.67
2022-10-02T10:57:54.000Z,62.07
2022-10-02T10:59:18.249Z,62.59
2022-10-02T11:00:59.263Z,62.42
2022-10-02T11:02:44.330Z,62.34
2022-10-02T11:04:32.013Z,62.79
2022-10-02T11:06:20.735Z,62.90
2022-10-02T11:08:01.610Z,62.19
2022-10-02T11:09:26.833Z,61.93
2022-10-02T11:11:08.611Z,61.92
2022-10-02T11:13:04.129Z,61.24
2022-10-02T11:14:44.209Z,61.00
2022-10-02T11:16:20.749Z,61.06
2022-10-02T11:18:30.192Z,60.71
2022-10-02T11:20:21.851Z,60.21
2022-10-02T11:21:57.940Z,60.14
2022-10-02T11:23:57.066Z,59.72
2022-10-02T11:25:54.713Z,59.52
2022-10-02T11:27:39.005Z,59.61
2022-10-02T11:29:11.750Z,59.83
2022-10-02T11:30:44.474Z,59.22
2022-10-02T11:32:52.780Z,59.38
2022-10-02T11:34:22.012Z,59.54
2022-10-02T11:35:53.529Z,59.78
2022-10-02T11:37:24.930Z,59.70
2022-10-02T11:38:46.731Z,59.48
2022-10-02T11:40:13.307Z,59.50
2022-10-02T11:41:47.379Z,59.13
2022-10-02T11:43:43.810Z,59.18
2022-10-02T11:45:10.230Z,58.77
2022-10-02T11:46:55.583Z,58.86
2022-10-02T11:48:12.960Z,58.67
2022-10-02T11:50:02.396Z,58.84
2022-10-02T11:51:28.343Z,59.11
2022-10-02T11:53:05.186Z,59.64
2022-10-02T11:54:58.453Z,59.25
2022-10-02T11:56:34.024Z,59.63
2022-10-02T11:58:18.587Z,59.81
2022-10-02T12:00:09.315Z,59.59
2022-10-02T12:01:46.119Z,59.19
2022-10-02T12:03:36.874Z,59.08
2022-10-02T12:05:18.709Z,59.04
2022-10-02T12:07:11.037Z,57.92
2022-10-02T12:08:52.148Z,57.61
2022-10-02T12:10:50.913Z,57.43
2022-10-02T12:12:33.321Z,57.32
2022-10-02T12:14:14.338Z,57.30
2022-10-02T12:15:54.197Z,57.24
2022-10-02T12:17:34.311Z,57.63
2022-10-02T12:19:15.249Z,58.28
2022-10-02T12:20:56.443Z,59.38
2022-10-02T12:22:49.485Z,60.99
2022-10-02T12:24:30.418Z,62.49
2022-10-02T12:26:26.354Z,64.03
2022-10-02T12:27:39.623Z,64.59
2022-10-02T12:29:00.896Z,64.54
2022-10-02T12:30:25.863Z,65.40
2022-10-02T12:31:53.794Z,66.27
2022-10-02T12:33:23.113Z,65.70
2022-10-02T12:35:20.845Z,66.47
2022-10-02T12:36:59.526Z,67.17
2022-10-02T12:39:21.976Z,68.04
2022-10-02T12:40:53.118Z,68.01
2022-10-02T12:42:18.391Z,68.42
2022-10-02T12:44:33.110Z,68.13
2022-10-02T12:46:10.807Z,68.66
2022-10-02T12:47:47.923Z,68.33
2022-10-02T12:49:39.705Z,68.24
2022-10-02T12:51:56.098Z,68.32
2022-10-02T12:53:18.794Z,67.37
2022-10-02T12:54:53.983Z,66.69
2022-10-02T12:56:44.781Z,67.21
2022-10-02T12:58:59.781Z,69.09
2022-10-02T13:00:24.799Z,67.50
2022-10-02T13:03:00.311Z,65.76
2022-10-02T13:04:38.594Z,65.61
2022-10-02T13:06:22.679Z,65.89
2022-10-02T13:07:56.954Z,65.36
2022-10-02T13:09:44.367Z,64.85
2022-10-02T13:11:55.888Z,64.15
2022-10-02T13:13:26.690Z,64.40
2022-10-02T13:15:40.570Z,64.35
2022-10-02T13:17:26.556Z,63.86
2022-10-02T13:18:44.600Z,64.26
2022-10-02T13:20:26.666Z,63.67
2022-10-02T13:21:57.890Z,64.00
2022-10-02T13:23:36.153Z,63.97
2022-10-02T13:24:59.855Z,63.44
2022-10-02T13:26:32.929Z,62.88
2022-10-02T13:28:13.966Z,62.54
2022-10-02T13:29:56.666Z,60.18
2022-10-02T13:31:36.154Z,59.39
2022-10-02T13:33:35.453Z,58.69
2022-10-02T13:35:06.812Z,58.79
2022-10-02T13:36:37.080Z,58.10
2022-10-02T13:38:29.625Z,57.08
2022-10-02T13:39:59.698Z,56.13
2022-10-02T13:41:50.454Z,56.45
2022-10-02T13:43:38.978Z,55.52
2022-10-02T13:45:02.336Z,55.63
2022-10-02T13:46:26.631Z,55.75
2022-10-02T13:47:57.054Z,55.79
2022-10-02T13:49:31.547Z,56.34
2022-10-02T13:50:53.799Z,55.92
2022-10-02T13:52:30.083Z,55.02
2022-10-02T13:54:24.770Z,54.04
2022-10-02T13:55:49.319Z,54.44
2022-10-02T13:57:36.413Z,54.39
2022-10-02T13:59:43.893Z,54.56
2022-10-02T14:02:11.741Z,54.58
2022-10-02T14:04:07.580Z,54.69
2022-10-02T14:05:44.666Z,54.86
2022-10-02T14:07:04.926Z,54.97
2022-10-02T14:08:40.686Z,54.99
2022-10-02T14:10:37.389Z,55.46
2022-10-02T14:12:10.061Z,55.55
2022-10-02T14:13:46.310Z,55.94
2022-10-02T14:15:07.352Z,55.73
2022-10-02T14:17:11.440Z,55.95
2022-10-02T14:18:45.049Z,56.23
2022-10-02T14:21:08.221Z,55.79
2022-10-02T14:22:40.818Z,56.31
2022-10-02T14:24:15.529Z,56.52
2022-10-02T14:25:57.870Z,57.45
2022-10-02T14:27:45.625Z,58.00
2022-10-02T14:29:23.475Z,61.72
2022-10-02T14:31:15.882Z,68.36
2022-10-02T14:33:03.147Z,71.63
2022-10-02T14:34:55.938Z,72.81
2022-10-02T14:36:07.453Z,73.10
2022-10-02T14:38:02.245Z,75.08
2022-10-02T14:39:37.350Z,74.46
2022-10-02T14:40:53.440Z,75.16
2022-10-02T14:42:46.873Z,76.78
2022-10-02T14:44:13.933Z,77.31
2022-10-02T14:46:04.361Z,78.26
2022-10-02T14:47:46.961Z,77.49
2022-10-02T14:49:18.908Z,77.05
2022-10-02T14:50:45.468Z,78.55
2022-10-02T14:52:20.612Z,79.21
2022-10-02T14:53:47.874Z,78.49
2022-10-02T14:55:19.447Z,77.89
2022-10-02T14:56:45.161Z,77.96
2022-10-02T14:58:52.520Z,78.98
2022-10-02T15:00:19.413Z,78.42
2022-10-02T15:01:30.229Z,79.28
2022-10-02T15:03:34.053Z,79.10
2022-10-02T15:05:04.532Z,78.88
2022-10-02T15:06:35.190Z,79.18
2022-10-02T15:07:41.508Z,78.82
2022-10-02T15:08:55.437Z,78.88
2022-10-02T15:10:22.597Z,79.64
2022-10-02T15:11:36.236Z,78.79
2022-10-02T15:13:06.943Z,78.91
2022-10-02T15:14:27.074Z,79.40
2022-10-02T15:16:33.756Z,79.49
2022-10-02T15:18:11.648Z,80.50
2022-10-02T15:19:27.592Z,79.99
2022-10-02T15:20:38.481Z,79.83
2022-10-02T15:22:13.498Z,80.26
2022-10-02T15:23:47.118Z,80.36
2022-10-02T15:25:43.615Z,81.20
2022-10-02T15:27:07.484Z,81.61
2022-10-02T15:28:55.980Z,81.37
2022-10-02T15:30:27.496Z,82.20
2022-10-02T15:32:05.018Z,82.76
2022-10-02T15:33:27.028Z,82.85
2022-10-02T15:34:50.269Z,83.20
2022-10-02T15:36:34.564Z,83.69
2022-10-02T15:38:20.629Z,83.91
2022-10-02T15:39:49.712Z,82.78
2022-10-02T15:41:12.934Z,83.15
2022-10-02T15:43:05.867Z,82.77
2022-10-02T15:44:51.732Z,83.42
2022-10-02T15:46:19.826Z,84.65
2022-10-02T15:47:42.982Z,83.80
2022-10-02T15:49:01.620Z,84.13
2022-10-02T15:50:59.197Z,85.58
2022-10-02T15:52:26.627Z,85.08
2022-10-02T15:53:55.214Z,84.98
2022-10-02T15:55:50.014Z,84.97
2022-10-02T15:57:24.350Z,85.90
2022-10-02T15:58:40.301Z,85.02
2022-10-02T16:00:27.962Z,85.10
2022-10-02T16:02:11.767Z,84.50
2022-10-02T16:03:43.599Z,84.37
2022-10-02T16:05:22.091Z,84.56
2022-10-02T16:07:33.056Z,84.35
2022-10-02T16:09:37.098Z,84.80
2022-10-02T16:10:57.446Z,84.73
2022-10-02T16:12:53.488Z,84.85
2022-10-02T16:14:12.827Z,84.52
2022-10-02T16:15:51.851Z,85.03
2022-10-02T16:17:18.988Z,84.34
2022-10-02T16:18:35.175Z,85.01
2022-10-02T16:20:18.681Z,84.34
2022-10-02T16:21:31.922Z,84.46
2022-10-02T16:23:51.463Z,85.52
2022-10-02T16:24:58.898Z,84.93
2022-10-02T16:26:38.846Z,85.43
2022-10-02T16:28:09.630Z,86.38
2022-10-02T16:29:58.597Z,86.31
2022-10-02T16:31:23.010Z,87.13
2022-10-02T16:32:56.282Z,89.01
2022-10-02T16:34:27.101Z,90.01
2022-10-02T16:35:43.850Z,90.63
2022-10-02T16:37:37.517Z,91.56
2022-10-02T16:38:51.168Z,92.20
2022-10-02T16:40:18.335Z,92.44
2022-10-02T16:42:23.784Z,91.52
2022-10-02T16:44:28.733Z,92.25
2022-10-02T16:45:59.593Z,91.40
2022-10-02T16:47:21.045Z,91.59
2022-10-02T16:49:11.080Z,92.51
2022-10-02T16:50:44.822Z,91.37
2022-10-02T16:52:10.900Z,91.42
2022-10-02T16:53:28.973Z,92.22
2022-10-02T16:54:50.768Z,92.46
2022-10-02T16:56:43.352Z,92.84
2022-10-02T16:58:10.471Z,92.55
2022-10-02T16:59:27.717Z,92.67
2022-10-02T17:00:50.827Z,93.06
2022-10-02T17:02:28.706Z,93.26
2022-10-02T17:03:41.961Z,93.12
2022-10-02T17:04:55.613Z,92.87
2022-10-02T17:06:34.405Z,93.80
2022-10-02T17:07:45.446Z,93.54
2022-10-02T17:09:06.022Z,93.39
2022-10-02T17:10:53.415Z,93.24
2022-10-02T17:12:15.236Z,92.78
2022-10-02T17:13:37.756Z,92.76
2022-10-02T17:15:02.991Z,93.15
2022-10-02T17:16:21.618Z,93.11
2022-10-02T17:17:43.305Z,93.62
2022-10-02T17:18:58.512Z,93.38
2022-10-02T17:20:02.334Z,92.80
2022-10-02T17:21:31.597Z,92.77
2022-10-02T17:23:16.996Z,93.21
2022-10-02T17:25:07.189Z,93.19
2022-10-02T17:26:50.085Z,92.96
2022-10-02T17:28:36.114Z,93.59
2022-10-02T17:29:48.796Z,93.16
2022-10-02T17:31:26.652Z,93.09
2022-10-02T17:32:47.250Z,92.76
2022-10-02T17:34:21.818Z,93.09
2022-10-02T17:35:44.748Z,93.35
2022-10-02T17:37:14.737Z,93.25
2022-10-02T17:38:40.582Z,92.85
2022-10-02T17:40:02.050Z,93.13
2022-10-02T17:41:51.860Z,93.28
2022-10-02T17:43:09.276Z,93.00
2022-10-02T17:45:05.009Z,92.76
2022-10-02T17:46:43.341Z,92.83
2022-10-02T17:48:28.040Z,92.77
2022-10-02T17:50:14.070Z,92.50
2022-10-02T17:52:35.610Z,92.28
2022-10-02T17:54:32.603Z,92.18
2022-10-02T17:56:26.269Z,91.91
2022-10-02T17:58:14.257Z,93.36
2022-10-02T17:59:43.920Z,94.28
2022-10-02T18:01:31.366Z,93.91
2022-10-02T18:03:23.543Z,94.11
2022-10-02T18:04:57.318Z,94.33
2022-10-02T18:06:30.927Z,94.25
2022-10-02T18:08:28.534Z,95.35
2022-10-02T18:10:01.128Z,95.40
2022-10-02T18:11:19.709Z,95.42
2022-10-02T18:12:46.661Z,95.25
2022-10-02T18:14:06.443Z,95.90
2022-10-02T18:15:52.279Z,95.83
2022-10-02T18:17:54.725Z,98.62
2022-10-02T18:19:30.295Z,99.88
2022-10-02T18:21:13.611Z,98.84
2022-10-02T18:22:58.976Z,98.55
2022-10-02T18:24:21.403Z,99.53
2022-10-02T18:25:52.395Z,98.99
2022-10-02T18:27:27.880Z,98.76
2022-10-02T18:29:20.985Z,99.15
2022-10-02T18:30:47.505Z,100.00
2022-10-02T18:32:17.755Z,100.00
2022-10-02T18:33:41.286Z,100.00
2022-10-02T18:35:23.362Z,100.00
2022-10-02T18:37:03.006Z,100.00
2022-10-02T18:38:45.423Z,100.00
2022-10-02T18:40:18.086Z,100.00
2022-10-02T18:42:20.582Z,100.00
2022-10-02T18:43:58.674Z,100.00
2022-10-02T18:45:27.492Z,100.00
2022-10-02T18:47:20.279Z,100.00
2022-10-02T18:48:57.578Z,100.00
2022-10-02T18:50:37.413Z,100.00
2022-10-02T18:52:16.086Z,100.00
2022-10-02T18:53:35.858Z,100.00
2022-10-02T18:55:28.628Z,100.00
2022-10-02T18:57:08.985Z,100.00
2022-10-02T18:59:11.362Z,100.00
2022-10-02T19:00:34.315Z,100.00
2022-10-02T19:02:30.246Z,100.00
2022-10-02T19:03:54.928Z,100.00
2022-10-02T19:05:46.697Z,100.00
2022-10-02T19:07:09.212Z,100.00
2022-10-02T19:09:10.095Z,100.00
2022-10-02T19:10:41.100Z,100.00
2022-10-02T19:12:13.528Z,100.00
2022-10-02T19:13:29.032Z,100.00
2022-10-02T19:14:46.075Z,100.00
2022-10-02T19:15:58.118Z,100.00
2022-10-02T19:17:12.096Z,100.00
2022-10-02T19:18:25.748Z,100.00
2022-10-02T19:19:45.726Z,100.00
2022-10-02T19:21:15.039Z,99.45
2022-10-02T19:22:33.411Z,99.50
2022-10-02T19:24:21.282Z,99.85
2022-10-02T19:25:44.682Z,100.00
2022-10-02T19:27:01.298Z,100.00
2022-10-02T19:28:23.977Z,100.00
2022-10-02T19:29:56.862Z,99.91
2022-10-02T19:31:13.419Z,100.00
2022-10-02T19:32:32.274Z,100.00
2022-10-02T19:33:53.579Z,100.00
2022-10-02T19:35:22.128Z,100.00
2022-10-02T19:36:53.555Z,100.00
2022-10-02T19:38:35.754Z,100.00
2022-10-02T19:40:00.316Z,100.00
2022-10-02T19:41:15.449Z,100.00
2022-10-02T19:42:30.092Z,100.00
2022-10-02T19:44:09.067Z,100.00
2022-10-02T19:45:35.750Z,100.00
2022-10-02T19:46:53.283Z,100.00
2022-10-02T19:48:11.804Z,100.00
2022-10-02T19:49:39.784Z,100.00
2022-10-02T19:51:18.642Z,100.00
2022-10-02T19:53:04.213Z,100.00
2022-10-02T19:54:23.682Z,100.00
2022-10-02T19:55:39.659Z,100.00
2022-10-02T19:57:22.505Z,100.00
2022-10-02T19:58:45.271Z,100.00
2022-10-02T19:59:57.666Z,100.00
2022-10-02T20:01:22.555Z,100.00
2022-10-02T20:02:36.089Z,100.00
2022-10-02T20:03:41.605Z,100.00
2022-10-02T20:04:47.717Z,100.00
2022-10-02T20:06:15.011Z,100.00
2022-10-02T20:07:27.464Z,100.00
2022-10-02T20:08:54.232Z,100.00
2022-10-02T20:10:11.606Z,100.00
2022-10-02T20:11:29.425Z,100.00
2022-10-02T20:13:37.441Z,100.00
2022-10-02T20:16:02.103Z,100.00
2022-10-02T20:17:15.068Z,100.00
2022-10-02T20:18:25.279Z,100.00
2022-10-02T20:19:39.737Z,100.00
2022-10-02T20:20:53.350Z,100.00
2022-10-02T20:22:28.478Z,100.00
2022-10-02T20:23:44.804Z,100.00
2022-10-02T20:25:22.716Z,100.00
2022-10-02T20:26:35.603Z,100.00
2022-10-02T20:27:56.651Z,100.00
2022-10-02T20:29:20.023Z,100.00
2022-10-02T20:30:32.889Z,100.00
2022-10-02T20:32:14.858Z,100.00
2022-10-02T20:34:01.831Z,100.00
2022-10-02T20:35:37.974Z,100.00
2022-10-02T20:37:07.933Z,100.00
2022-10-02T20:38:42.224Z,100.00
2022-10-02T20:40:02.705Z,100.00
2022-10-02T20:41:29.665Z,100.00
2022-10-02T20:43:09.802Z,100.00
2022-10-02T20:44:24.465Z,100.00
2022-10-02T20:45:45.200Z,100.00
2022-10-02T20:47:37.152Z,100.00
2022-10-02T20:49:13.761Z,100.00
2022-10-02T20:50:29.824Z,100.00
2022-10-02T20:52:16.377Z,100.00
2022-10-02T20:54:03.443Z,100.00
2022-10-02T20:55:30.838Z,100.00
2022-10-02T20:57:14.808Z,100.00
2022-10-02T20:59:06.557Z,100.00
2022-10-02T21:00:22.844Z,100.00
2022-10-02T21:02:01.699Z,100.00
2022-10-02T21:03:37.309Z,100.00
2022-10-02T21:05:03.543Z,100.00
2022-10-02T21:06:35.906Z,100.00
2022-10-02T21:07:58.121Z,100.00
2022-10-02T21:09:57.765Z,100.00
2022-10-02T21:11:16.870Z,100.00
2022-10-02T21:13:07.559Z,100.00
2022-10-02T21:14:55.647Z,100.00
2022-10-02T21:16:35.268Z,100.00
2022-10-02T21:17:55.117Z,100.00
2022-10-02T21:19:42.156Z,100.00
2022-10-02T21:21:36.405Z,100.00
2022-10-02T21:22:55.356Z,100.00
2022-10-02T21:24:42.078Z,100.00
2022-10-02T21:26:27.130Z,100.00
2022-10-02T21:28:13.686Z,100.00
2022-10-02T21:29:39.239Z,100.00
2022-10-02T21:31:14.807Z,100.00
2022-10-02T21:33:13.964Z,100.00
2022-10-02T21:35:05.344Z,100.00
2022-10-02T21:36:47.803Z,100.00
2022-10-02T21:38:19.425Z,100.00
2022-10-02T21:40:25.711Z,100.00
2022-10-02T21:42:19.922Z,100.00
2022-10-02T21:43:44.501Z,100.00
2022-10-02T21:45:35.864Z,100.00
2022-10-02T21:47:22.527Z,100.00
2022-10-02T21:49:20.438Z,100.00
2022-10-02T21:50:46.242Z,100.00
2022-10-02T21:52:29.673Z,100.00
2022-10-02T21:54:31.003Z,100.00
2022-10-02T21:56:18.278Z,100.00